Airfield :
LOGIN :

Register | Disclaimer

   EN    FR    IT 

 










Legend :    VFR   Marginal VFR   IFR   Intensive IFR   Very Intensive IFR
Visi :
Ceiling :
>= 8 km
>= 3000ft
5 to 8 km
1000 to 3000 ft
1500m to 5 km
500 to 1000 ft
800 to 1500m
200 to 500 ft
< 800m
< 200 ft
Symbols :   Thunderstorms  Fog  Heavy snow  Heavy precipitations  Wind > 20 kt
SIGMETs :     Misc.  Thunderstorms  Icing  Turbulence  Mountain Waves  Volcanic Ashes







- Airport Elevation : 640 ft
- IATA code : AOC


EDAC - Altenburg-Nobitz

CURRENT METAR :
  • 211550Z 24006KT 9000 SCT020 M00/M01 Q1017

EXPIRED METARs :
  • 211520Z 25005KT 9999 FEW015 BKN020 01/M00 Q1016
  • 211450Z 24006KT 9999 BKN014 01/M00 Q1016
  • 211420Z 25003KT 8000 BKN012 01/00 Q1015
  • 211350Z 27005KT 8000 BKN008 01/00 Q1015
  • 211320Z 29004KT 260V330 8000 OVC008 01/M00 Q1015

TAF TAF EDAC
Valid from the 21 at 15:00 until the 22 at 00:00 UTC


211400Z 2115/2124 VRB03KT 6000 OVC008
BECMG 2115/2118 BKN030
No reported NOTAMs for that airfield.



MET'MAP, your aeronautical weather chart ! - Copyright ORBIFLY December 2007 - Disclaimer

ORBIFLY MET'MAP TEAM :

Programming & Development : Alexandra Zaïnal
Concept & Development : Baudouin d'Aumeries
Co-Development & Prog : Marc-Olivier Méhu
Technical & hardware support : Manuel Goepfert

Contact : metmap@orbifly.com




SOURCES & CREDITS :

   NOAA